sensor_id;sensor_type;location;lat;lon;timestamp;pressure;altitude;pressure_sealevel;temperature;humidity
61900;BME280;47853;55.890;37.664;2022-09-01T00:00:36;98517.78;;;10.05;73.07
61900;BME280;47853;55.890;37.664;2022-09-01T00:03:02;98514.25;;;9.83;74.06
61900;BME280;47853;55.890;37.664;2022-09-01T00:05:30;98549.63;;;10.20;74.01
61900;BME280;47853;55.890;37.664;2022-09-01T00:07:58;98507.38;;;9.89;73.92
61900;BME280;47853;55.890;37.664;2022-09-01T00:10:24;98527.69;;;9.96;74.54
61900;BME280;47853;55.890;37.664;2022-09-01T00:12:49;98488.56;;;9.68;74.27
61900;BME280;47853;55.890;37.664;2022-09-01T00:15:15;98531.34;;;9.80;74.79
61900;BME280;47853;55.890;37.664;2022-09-01T00:17:40;98497.88;;;9.64;74.60
61900;BME280;47853;55.890;37.664;2022-09-01T00:20:06;98508.69;;;9.63;74.62
61900;BME280;47853;55.890;37.664;2022-09-01T00:22:32;98502.91;;;9.44;74.90
61900;BME280;47853;55.890;37.664;2022-09-01T00:24:57;98522.75;;;9.78;75.14
61900;BME280;47853;55.890;37.664;2022-09-01T00:27:22;98599.03;;;10.06;75.49
61900;BME280;47853;55.890;37.664;2022-09-01T00:29:48;98531.63;;;9.55;75.66
61900;BME280;47853;55.890;37.664;2022-09-01T00:32:13;98586.31;;;10.01;75.55
61900;BME280;47853;55.890;37.664;2022-09-01T00:34:39;98540.88;;;9.75;75.33
61900;BME280;47853;55.890;37.664;2022-09-01T00:37:07;98536.56;;;9.74;74.60
61900;BME280;47853;55.890;37.664;2022-09-01T00:39:33;98547.81;;;9.61;74.87
61900;BME280;47853;55.890;37.664;2022-09-01T00:41:58;98545.69;;;9.56;75.06
61900;BME280;47853;55.890;37.664;2022-09-01T00:44:26;98503.72;;;9.29;75.64
61900;BME280;47853;55.890;37.664;2022-09-01T00:46:54;98568.19;;;9.60;75.74
61900;BME280;47853;55.890;37.664;2022-09-01T00:49:25;98600.00;;;9.75;75.76
61900;BME280;47853;55.890;37.664;2022-09-01T00:52:00;98555.00;;;9.52;75.45
61900;BME280;47853;55.890;37.664;2022-09-01T00:54:30;98581.81;;;9.57;75.83
61900;BME280;47853;55.890;37.664;2022-09-01T00:56:57;98524.75;;;9.31;75.52
61900;BME280;47853;55.890;37.664;2022-09-01T00:59:25;98574.28;;;9.46;75.69
61900;BME280;47853;55.890;37.664;2022-09-01T01:01:52;98501.22;;;8.98;76.06
61900;BME280;47853;55.890;37.664;2022-09-01T01:04:18;98492.72;;;9.03;75.78
61900;BME280;47853;55.890;37.664;2022-09-01T01:06:49;98552.97;;;9.39;75.92
61900;BME280;47853;55.890;37.664;2022-09-01T01:09:17;98595.31;;;9.62;75.92
61900;BME280;47853;55.890;37.664;2022-09-01T01:11:43;98597.09;;;9.70;75.52
61900;BME280;47853;55.890;37.664;2022-09-01T01:14:08;98564.94;;;9.35;76.00
61900;BME280;47853;55.890;37.664;2022-09-01T01:16:34;98554.38;;;9.50;76.07
61900;BME280;47853;55.890;37.664;2022-09-01T01:18:59;98587.56;;;9.61;76.09
61900;BME280;47853;55.890;37.664;2022-09-01T01:21:45;98603.13;;;9.64;76.18
61900;BME280;47853;55.890;37.664;2022-09-01T01:26:48;98593.03;;;9.59;76.18
61900;BME280;47853;55.890;37.664;2022-09-01T01:29:14;98578.91;;;9.67;75.96
61900;BME280;47853;55.890;37.664;2022-09-01T01:31:40;98572.66;;;9.45;75.87
61900;BME280;47853;55.890;37.664;2022-09-01T01:34:05;98576.97;;;9.61;75.47
61900;BME280;47853;55.890;37.664;2022-09-01T01:36:33;98571.19;;;9.57;75.62
61900;BME280;47853;55.890;37.664;2022-09-01T01:39:02;98581.31;;;9.38;75.92
61900;BME280;47853;55.890;37.664;2022-09-01T01:41:30;98587.44;;;9.39;76.30
61900;BME280;47853;55.890;37.664;2022-09-01T01:43:57;98578.09;;;9.28;76.35
61900;BME280;47853;55.890;37.664;2022-09-01T01:46:23;98588.66;;;9.51;75.96
61900;BME280;47853;55.890;37.664;2022-09-01T01:48:48;98567.91;;;9.55;75.32
61900;BME280;47853;55.890;37.664;2022-09-01T01:51:17;98582.28;;;9.61;75.20
61900;BME280;47853;55.890;37.664;2022-09-01T01:53:43;98588.34;;;9.46;74.94
61900;BME280;47853;55.890;37.664;2022-09-01T01:56:08;98580.63;;;9.60;75.53
61900;BME280;47853;55.890;37.664;2022-09-01T01:58:34;98584.31;;;9.74;74.60
61900;BME280;47853;55.890;37.664;2022-09-01T02:00:59;98567.91;;;9.70;74.13
61900;BME280;47853;55.890;37.664;2022-09-01T02:03:28;98580.59;;;9.45;74.33
61900;BME280;47853;55.890;37.664;2022-09-01T02:05:55;98580.00;;;9.19;75.00
61900;BME280;47853;55.890;37.664;2022-09-01T02:08:22;98583.94;;;9.23;75.47
61900;BME280;47853;55.890;37.664;2022-09-01T02:10:50;98586.47;;;9.17;75.76
61900;BME280;47853;55.890;37.664;2022-09-01T02:13:19;98590.63;;;9.34;75.53
61900;BME280;47853;55.890;37.664;2022-09-01T02:15:48;98592.66;;;9.32;75.49
61900;BME280;47853;55.890;37.664;2022-09-01T02:18:22;98588.63;;;9.36;75.59
61900;BME280;47853;55.890;37.664;2022-09-01T02:20:49;98594.00;;;9.28;75.47
61900;BME280;47853;55.890;37.664;2022-09-01T02:23:17;98609.22;;;9.26;75.39
61900;BME280;47853;55.890;37.664;2022-09-01T02:25:44;98594.72;;;8.98;76.13
61900;BME280;47853;55.890;37.664;2022-09-01T02:28:11;98591.78;;;8.93;76.02
61900;BME280;47853;55.890;37.664;2022-09-01T02:30:37;98595.34;;;9.00;76.08
61900;BME280;47853;55.890;37.664;2022-09-01T02:33:03;98573.53;;;8.98;76.10
61900;BME280;47853;55.890;37.664;2022-09-01T02:35:28;98584.06;;;9.07;75.76
61900;BME280;47853;55.890;37.664;2022-09-01T02:37:53;98594.00;;;9.05;75.54
61900;BME280;47853;55.890;37.664;2022-09-01T02:40:19;98570.13;;;8.90;75.45
61900;BME280;47853;55.890;37.664;2022-09-01T02:42:44;98591.66;;;9.10;75.54
61900;BME280;47853;55.890;37.664;2022-09-01T02:45:09;98586.31;;;8.95;75.89
61900;BME280;47853;55.890;37.664;2022-09-01T02:47:35;98595.97;;;8.88;76.21
61900;BME280;47853;55.890;37.664;2022-09-01T02:50:00;98606.31;;;8.97;75.96
61900;BME280;47853;55.890;37.664;2022-09-01T02:52:25;98594.19;;;9.03;75.69
61900;BME280;47853;55.890;37.664;2022-09-01T02:54:51;98602.13;;;9.03;75.47
61900;BME280;47853;55.890;37.664;2022-09-01T02:57:16;98572.78;;;8.90;75.16
61900;BME280;47853;55.890;37.664;2022-09-01T02:59:41;98573.78;;;8.89;75.25
61900;BME280;47853;55.890;37.664;2022-09-01T03:02:08;98582.25;;;8.84;75.09
61900;BME280;47853;55.890;37.664;2022-09-01T03:04:34;98589.25;;;9.00;74.84
61900;BME280;47853;55.890;37.664;2022-09-01T03:07:05;98589.88;;;9.25;74.44
61900;BME280;47853;55.890;37.664;2022-09-01T03:09:30;98590.88;;;9.24;74.04
61900;BME280;47853;55.890;37.664;2022-09-01T03:11:56;98580.09;;;9.03;74.19
61900;BME280;47853;55.890;37.664;2022-09-01T03:14:22;98587.81;;;9.12;74.22
61900;BME280;47853;55.890;37.664;2022-09-01T03:16:47;98583.72;;;9.10;74.41
61900;BME280;47853;55.890;37.664;2022-09-01T03:19:13;98583.81;;;8.93;74.53
61900;BME280;47853;55.890;37.664;2022-09-01T03:21:40;98588.75;;;8.96;74.38
61900;BME280;47853;55.890;37.664;2022-09-01T03:24:08;98596.47;;;9.06;74.41
61900;BME280;47853;55.890;37.664;2022-09-01T03:26:34;98579.44;;;9.09;73.78
61900;BME280;47853;55.890;37.664;2022-09-01T03:28:59;98589.28;;;9.38;73.12
61900;BME280;47853;55.890;37.664;2022-09-01T03:31:25;98598.59;;;9.34;72.48
61900;BME280;47853;55.890;37.664;2022-09-01T03:33:50;98572.13;;;9.26;72.42
61900;BME280;47853;55.890;37.664;2022-09-01T03:36:16;98574.88;;;9.18;72.39
61900;BME280;47853;55.890;37.664;2022-09-01T03:38:41;98597.69;;;9.19;72.24
61900;BME280;47853;55.890;37.664;2022-09-01T03:41:06;98589.50;;;9.28;72.12
61900;BME280;47853;55.890;37.664;2022-09-01T03:43:33;98583.44;;;9.20;71.92
61900;BME280;47853;55.890;37.664;2022-09-01T03:45:59;98576.69;;;9.17;71.97
61900;BME280;47853;55.890;37.664;2022-09-01T03:48:26;98578.59;;;9.08;71.65
61900;BME280;47853;55.890;37.664;2022-09-01T03:50:51;98598.31;;;9.29;71.54
61900;BME280;47853;55.890;37.664;2022-09-01T03:53:19;98596.19;;;9.24;71.33
61900;BME280;47853;55.890;37.664;2022-09-01T03:55:46;98559.56;;;9.05;71.81
61900;BME280;47853;55.890;37.664;2022-09-01T03:58:14;98581.00;;;9.18;71.59
61900;BME280;47853;55.890;37.664;2022-09-01T04:00:43;98593.09;;;9.36;71.06
61900;BME280;47853;55.890;37.664;2022-09-01T04:03:10;98579.09;;;9.27;70.42
61900;BME280;47853;55.890;37.664;2022-09-01T04:05:36;98587.03;;;9.27;70.10
61900;BME280;47853;55.890;37.664;2022-09-01T04:08:06;98596.50;;;9.45;70.12
61900;BME280;47853;55.890;37.664;2022-09-01T04:10:34;98577.19;;;9.36;70.33
61900;BME280;47853;55.890;37.664;2022-09-01T04:13:01;98496.44;;;8.93;70.65
61900;BME280;47853;55.890;37.664;2022-09-01T04:15:27;98563.19;;;9.12;71.75
61900;BME280;47853;55.890;37.664;2022-09-01T04:17:54;98591.44;;;9.35;71.87
61900;BME280;47853;55.890;37.664;2022-09-01T04:20:20;98524.28;;;8.66;71.89
61900;BME280;47853;55.890;37.664;2022-09-01T04:22:46;98547.59;;;8.94;72.01
61900;BME280;47853;55.890;37.664;2022-09-01T04:25:12;98507.97;;;8.77;72.34
61900;BME280;47853;55.890;37.664;2022-09-01T04:27:38;98566.91;;;9.18;72.24
61900;BME280;47853;55.890;37.664;2022-09-01T04:30:04;98571.81;;;9.29;71.58
61900;BME280;47853;55.890;37.664;2022-09-01T04:32:30;98555.53;;;8.94;72.15
61900;BME280;47853;55.890;37.664;2022-09-01T04:34:55;98586.69;;;9.30;71.94
61900;BME280;47853;55.890;37.664;2022-09-01T04:37:21;98597.31;;;9.45;70.37
61900;BME280;47853;55.890;37.664;2022-09-01T04:39:52;98582.97;;;9.39;70.30
61900;BME280;47853;55.890;37.664;2022-09-01T04:42:19;98577.47;;;9.41;69.20
61900;BME280;47853;55.890;37.664;2022-09-01T04:44:45;98547.72;;;9.16;67.17
61900;BME280;47853;55.890;37.664;2022-09-01T04:47:11;98517.88;;;9.07;66.64
61900;BME280;47853;55.890;37.664;2022-09-01T04:49:36;98526.09;;;9.12;65.67
61900;BME280;47853;55.890;37.664;2022-09-01T04:52:02;98495.19;;;9.04;64.94
61900;BME280;47853;55.890;37.664;2022-09-01T04:54:37;98598.25;;;9.67;63.85
61900;BME280;47853;55.890;37.664;2022-09-01T04:57:03;98579.41;;;9.47;63.71
61900;BME280;47853;55.890;37.664;2022-09-01T04:59:29;98595.97;;;9.64;64.19
61900;BME280;47853;55.890;37.664;2022-09-01T05:01:54;98511.91;;;9.05;63.29
61900;BME280;47853;55.890;37.664;2022-09-01T05:04:25;98595.13;;;9.49;63.64
61900;BME280;47853;55.890;37.664;2022-09-01T05:06:53;98601.56;;;9.69;62.94
61900;BME280;47853;55.890;37.664;2022-09-01T05:09:19;98559.50;;;9.66;62.68
61900;BME280;47853;55.890;37.664;2022-09-01T05:11:45;98613.28;;;9.90;61.99
61900;BME280;47853;55.890;37.664;2022-09-01T05:14:12;98589.59;;;9.89;62.12
61900;BME280;47853;55.890;37.664;2022-09-01T05:16:37;98573.66;;;9.89;61.70
61900;BME280;47853;55.890;37.664;2022-09-01T05:19:03;98588.84;;;10.10;61.45
61900;BME280;47853;55.890;37.664;2022-09-01T05:21:28;98592.22;;;10.19;60.83
61900;BME280;47853;55.890;37.664;2022-09-01T05:23:56;98590.88;;;9.93;61.45
61900;BME280;47853;55.890;37.664;2022-09-01T05:26:29;98613.03;;;10.00;61.23
61900;BME280;47853;55.890;37.664;2022-09-01T05:28:59;98590.41;;;9.74;60.68
61900;BME280;47853;55.890;37.664;2022-09-01T05:31:27;98601.13;;;9.96;61.00
61900;BME280;47853;55.890;37.664;2022-09-01T05:33:53;98540.75;;;9.38;60.96
61900;BME280;47853;55.890;37.664;2022-09-01T05:36:22;98566.47;;;9.14;61.53
61900;BME280;47853;55.890;37.664;2022-09-01T05:38:48;98585.38;;;9.64;61.47
61900;BME280;47853;55.890;37.664;2022-09-01T05:41:15;98511.69;;;9.29;60.94
61900;BME280;47853;55.890;37.664;2022-09-01T05:43:43;98543.59;;;9.36;60.87
61900;BME280;47853;55.890;37.664;2022-09-01T05:46:09;98525.81;;;9.22;61.34
61900;BME280;47853;55.890;37.664;2022-09-01T05:48:34;98555.00;;;9.52;61.06
61900;BME280;47853;55.890;37.664;2022-09-01T05:51:00;98582.09;;;9.92;60.72
61900;BME280;47853;55.890;37.664;2022-09-01T05:53:29;98596.06;;;10.16;60.89
61900;BME280;47853;55.890;37.664;2022-09-01T05:55:54;98586.66;;;10.28;60.51
61900;BME280;47853;55.890;37.664;2022-09-01T05:58:20;98602.09;;;10.55;60.02
61900;BME280;47853;55.890;37.664;2022-09-01T06:00:45;98582.88;;;10.53;59.01
61900;BME280;47853;55.890;37.664;2022-09-01T06:03:11;98577.31;;;10.18;60.00
61900;BME280;47853;55.890;37.664;2022-09-01T06:05:36;98592.59;;;10.15;60.87
61900;BME280;47853;55.890;37.664;2022-09-01T06:08:03;98597.91;;;10.15;61.81
61900;BME280;47853;55.890;37.664;2022-09-01T06:10:32;98570.53;;;10.15;60.71
61900;BME280;47853;55.890;37.664;2022-09-01T06:13:04;98566.06;;;10.30;60.75
61900;BME280;47853;55.890;37.664;2022-09-01T06:15:29;98579.06;;;10.40;60.57
61900;BME280;47853;55.890;37.664;2022-09-01T06:20:41;98570.78;;;10.87;59.43
61900;BME280;47853;55.890;37.664;2022-09-01T06:23:12;98597.56;;;10.70;59.82
61900;BME280;47853;55.890;37.664;2022-09-01T06:25:38;98575.50;;;10.18;59.33
61900;BME280;47853;55.890;37.664;2022-09-01T06:28:04;98601.38;;;10.46;60.03
61900;BME280;47853;55.890;37.664;2022-09-01T06:30:30;98611.63;;;10.49;60.02
61900;BME280;47853;55.890;37.664;2022-09-01T06:32:56;98569.38;;;10.18;60.29
61900;BME280;47853;55.890;37.664;2022-09-01T06:35:22;98534.53;;;9.91;60.36
61900;BME280;47853;55.890;37.664;2022-09-01T06:37:48;98614.84;;;10.44;60.24
61900;BME280;47853;55.890;37.664;2022-09-01T06:40:15;98535.84;;;9.95;59.56
61900;BME280;47853;55.890;37.664;2022-09-01T06:42:40;98539.28;;;9.95;58.67
61900;BME280;47853;55.890;37.664;2022-09-01T06:45:06;98566.63;;;10.11;59.56
61900;BME280;47853;55.890;37.664;2022-09-01T06:47:32;98546.66;;;10.15;58.57
61900;BME280;47853;55.890;37.664;2022-09-01T06:49:57;98570.84;;;10.05;58.98
61900;BME280;47853;55.890;37.664;2022-09-01T06:52:23;98543.44;;;9.83;59.51
61900;BME280;47853;55.890;37.664;2022-09-01T06:54:49;98578.16;;;9.73;60.30
61900;BME280;47853;55.890;37.664;2022-09-01T06:57:14;98570.75;;;9.68;60.88
61900;BME280;47853;55.890;37.664;2022-09-01T06:59:40;98583.72;;;9.63;61.33
61900;BME280;47853;55.890;37.664;2022-09-01T07:02:05;98585.00;;;9.67;61.64
61900;BME280;47853;55.890;37.664;2022-09-01T07:04:31;98569.09;;;9.67;62.52
61900;BME280;47853;55.890;37.664;2022-09-01T07:06:59;98621.97;;;9.84;63.17
61900;BME280;47853;55.890;37.664;2022-09-01T07:09:25;98582.56;;;9.66;63.35
61900;BME280;47853;55.890;37.664;2022-09-01T07:11:50;98623.97;;;10.27;62.35
61900;BME280;47853;55.890;37.664;2022-09-01T07:14:15;98620.31;;;10.43;61.70
61900;BME280;47853;55.890;37.664;2022-09-01T07:16:42;98641.47;;;10.21;60.70
61900;BME280;47853;55.890;37.664;2022-09-01T07:19:09;98649.50;;;10.13;60.85
61900;BME280;47853;55.890;37.664;2022-09-01T07:21:34;98590.41;;;9.89;61.03
61900;BME280;47853;55.890;37.664;2022-09-01T07:24:00;98529.97;;;9.99;60.11
61900;BME280;47853;55.890;37.664;2022-09-01T07:26:26;98636.63;;;10.77;58.53
61900;BME280;47853;55.890;37.664;2022-09-01T07:28:51;98603.91;;;11.13;56.17
61900;BME280;47853;55.890;37.664;2022-09-01T07:31:26;98618.47;;;11.45;55.39
61900;BME280;47853;55.890;37.664;2022-09-01T07:33:54;98625.66;;;11.73;54.49
61900;BME280;47853;55.890;37.664;2022-09-01T07:36:23;98626.44;;;11.39;54.51
61900;BME280;47853;55.890;37.664;2022-09-01T07:38:51;98634.41;;;10.95;54.49
61900;BME280;47853;55.890;37.664;2022-09-01T07:41:17;98650.56;;;10.79;54.73
61900;BME280;47853;55.890;37.664;2022-09-01T07:43:42;98629.00;;;10.22;55.32
61900;BME280;47853;55.890;37.664;2022-09-01T07:46:07;98616.38;;;10.24;55.62
61900;BME280;47853;55.890;37.664;2022-09-01T07:48:33;98650.00;;;10.47;54.66
61900;BME280;47853;55.890;37.664;2022-09-01T07:50:58;98619.22;;;10.52;53.48
61900;BME280;47853;55.890;37.664;2022-09-01T07:53:30;98612.81;;;10.62;53.54
61900;BME280;47853;55.890;37.664;2022-09-01T07:55:58;98614.91;;;10.88;52.46
61900;BME280;47853;55.890;37.664;2022-09-01T07:58:27;98638.13;;;11.01;52.17
61900;BME280;47853;55.890;37.664;2022-09-01T08:00:53;98649.59;;;10.65;52.75
61900;BME280;47853;55.890;37.664;2022-09-01T08:03:22;98638.50;;;10.76;52.76
61900;BME280;47853;55.890;37.664;2022-09-01T08:05:54;98631.78;;;10.80;52.62
61900;BME280;47853;55.890;37.664;2022-09-01T08:08:20;98627.44;;;11.16;52.27
61900;BME280;47853;55.890;37.664;2022-09-01T08:10:45;98632.56;;;11.17;52.31
61900;BME280;47853;55.890;37.664;2022-09-01T08:13:13;98555.75;;;10.57;52.41
61900;BME280;47853;55.890;37.664;2022-09-01T08:15:39;98598.34;;;10.86;53.03
61900;BME280;47853;55.890;37.664;2022-09-01T08:18:05;98620.75;;;10.98;53.20
61900;BME280;47853;55.890;37.664;2022-09-01T08:20:31;98626.13;;;11.27;52.98
61900;BME280;47853;55.890;37.664;2022-09-01T08:22:57;98594.47;;;10.88;53.05
61900;BME280;47853;55.890;37.664;2022-09-01T08:25:22;98645.69;;;10.46;54.77
61900;BME280;47853;55.890;37.664;2022-09-01T08:27:47;98591.69;;;10.23;54.95
61900;BME280;47853;55.890;37.664;2022-09-01T08:30:13;98587.28;;;10.30;55.30
61900;BME280;47853;55.890;37.664;2022-09-01T08:32:39;98618.13;;;10.62;55.13
61900;BME280;47853;55.890;37.664;2022-09-01T08:35:05;98601.63;;;10.51;55.04
61900;BME280;47853;55.890;37.664;2022-09-01T08:37:31;98650.31;;;10.58;54.83
61900;BME280;47853;55.890;37.664;2022-09-01T08:39:56;98616.28;;;10.32;54.96
61900;BME280;47853;55.890;37.664;2022-09-01T08:47:24;98575.56;;;10.25;54.74
61900;BME280;47853;55.890;37.664;2022-09-01T08:49:50;98619.53;;;10.42;54.63
61900;BME280;47853;55.890;37.664;2022-09-01T08:52:25;98637.56;;;10.84;54.63
61900;BME280;47853;55.890;37.664;2022-09-01T08:55:23;98659.53;;;11.14;54.50
61900;BME280;47853;55.890;37.664;2022-09-01T08:57:51;98646.78;;;11.53;52.90
61900;BME280;47853;55.890;37.664;2022-09-01T09:00:21;98648.31;;;11.19;52.93
61900;BME280;47853;55.890;37.664;2022-09-01T09:17:14;98665.59;;;10.71;54.62
61900;BME280;47853;55.890;37.664;2022-09-01T09:19:43;98670.31;;;10.91;54.07
61900;BME280;47853;55.890;37.664;2022-09-01T09:22:15;98665.69;;;10.78;54.07
61900;BME280;47853;55.890;37.664;2022-09-01T09:25:05;98690.44;;;10.64;55.00
61900;BME280;47853;55.890;37.664;2022-09-01T09:30:09;98645.72;;;10.67;54.76
61900;BME280;47853;55.890;37.664;2022-09-01T09:32:52;98671.00;;;10.78;55.03
61900;BME280;47853;55.890;37.664;2022-09-01T09:35:27;98623.75;;;10.73;54.01
61900;BME280;47853;55.890;37.664;2022-09-01T09:37:53;98667.66;;;10.91;53.81
61900;BME280;47853;55.890;37.664;2022-09-01T09:40:22;98638.06;;;10.27;54.70
61900;BME280;47853;55.890;37.664;2022-09-01T09:45:27;98694.63;;;10.73;54.26
61900;BME280;47853;55.890;37.664;2022-09-01T09:47:54;98579.34;;;10.15;53.95
61900;BME280;47853;55.890;37.664;2022-09-01T09:50:37;98605.28;;;10.35;54.07
61900;BME280;47853;55.890;37.664;2022-09-01T09:53:29;98645.00;;;10.58;54.38
61900;BME280;47853;55.890;37.664;2022-09-01T09:56:15;98607.69;;;10.45;54.23
61900;BME280;47853;55.890;37.664;2022-09-01T09:58:43;98687.09;;;10.77;54.80
61900;BME280;47853;55.890;37.664;2022-09-01T10:01:13;98700.56;;;10.90;54.84
61900;BME280;47853;55.890;37.664;2022-09-01T10:03:44;98695.75;;;11.00;54.52
61900;BME280;47853;55.890;37.664;2022-09-01T10:06:30;98700.44;;;10.98;54.45
61900;BME280;47853;55.890;37.664;2022-09-01T10:08:56;98685.19;;;10.70;55.33
61900;BME280;47853;55.890;37.664;2022-09-01T10:11:42;98709.91;;;10.86;56.02
61900;BME280;47853;55.890;37.664;2022-09-01T10:14:28;98708.97;;;10.79;56.71
61900;BME280;47853;55.890;37.664;2022-09-01T10:17:01;98702.94;;;11.22;56.03
61900;BME280;47853;55.890;37.664;2022-09-01T10:19:28;98698.34;;;11.81;54.48
61900;BME280;47853;55.890;37.664;2022-09-01T10:21:53;98710.84;;;11.80;53.49
61900;BME280;47853;55.890;37.664;2022-09-01T10:24:31;98712.28;;;12.04;53.01
61900;BME280;47853;55.890;37.664;2022-09-01T10:27:00;98716.00;;;12.10;52.24
61900;BME280;47853;55.890;37.664;2022-09-01T10:29:30;98706.25;;;11.96;52.31
61900;BME280;47853;55.890;37.664;2022-09-01T10:31:56;98700.22;;;11.87;52.42
61900;BME280;47853;55.890;37.664;2022-09-01T10:34:23;98729.47;;;11.37;53.15
61900;BME280;47853;55.890;37.664;2022-09-01T10:36:49;98721.22;;;10.95;54.18
61900;BME280;47853;55.890;37.664;2022-09-01T10:39:17;98706.03;;;10.88;54.75
61900;BME280;47853;55.890;37.664;2022-09-01T10:41:54;98722.19;;;10.87;54.67
61900;BME280;47853;55.890;37.664;2022-09-01T10:44:24;98695.94;;;10.99;54.85
61900;BME280;47853;55.890;37.664;2022-09-01T10:46:53;98709.69;;;11.24;54.55
61900;BME280;47853;55.890;37.664;2022-09-01T10:49:20;98710.09;;;11.43;54.32
61900;BME280;47853;55.890;37.664;2022-09-01T10:51:46;98708.56;;;11.12;54.88
61900;BME280;47853;55.890;37.664;2022-09-01T11:14:56;98716.41;;;11.85;53.15
61900;BME280;47853;55.890;37.664;2022-09-01T11:17:37;98634.53;;;11.09;53.54
61900;BME280;47853;55.890;37.664;2022-09-01T11:20:39;98668.84;;;10.88;54.28
61900;BME280;47853;55.890;37.664;2022-09-01T11:23:21;98667.88;;;11.33;53.71
61900;BME280;47853;55.890;37.664;2022-09-01T11:35:44;98722.88;;;11.76;52.83
61900;BME280;47853;55.890;37.664;2022-09-01T11:38:12;98720.06;;;11.84;52.26
61900;BME280;47853;55.890;37.664;2022-09-01T11:40:39;98703.56;;;11.67;52.33
61900;BME280;47853;55.890;37.664;2022-09-01T11:43:15;98708.09;;;11.95;52.12
61900;BME280;47853;55.890;37.664;2022-09-01T11:48:19;98699.63;;;12.13;50.57
61900;BME280;47853;55.890;37.664;2022-09-01T11:50:56;98710.22;;;11.78;51.54
61900;BME280;47853;55.890;37.664;2022-09-01T11:53:23;98688.63;;;11.66;51.58
61900;BME280;47853;55.890;37.664;2022-09-01T11:55:52;98722.50;;;11.57;51.96
61900;BME280;47853;55.890;37.664;2022-09-01T11:58:28;98713.47;;;11.52;52.27
61900;BME280;47853;55.890;37.664;2022-09-01T12:01:19;98719.69;;;11.87;51.77
61900;BME280;47853;55.890;37.664;2022-09-01T12:03:46;98702.00;;;11.73;51.74
61900;BME280;47853;55.890;37.664;2022-09-01T12:06:21;98699.41;;;12.08;51.25
61900;BME280;47853;55.890;37.664;2022-09-01T12:08:56;98704.16;;;12.13;51.07
61900;BME280;47853;55.890;37.664;2022-09-01T12:11:25;98715.53;;;12.70;49.91
61900;BME280;47853;55.890;37.664;2022-09-01T12:14:03;98721.38;;;13.01;48.70
61900;BME280;47853;55.890;37.664;2022-09-01T12:16:30;98744.78;;;13.12;48.13
61900;BME280;47853;55.890;37.664;2022-09-01T12:18:58;98696.28;;;13.51;47.75
61900;BME280;47853;55.890;37.664;2022-09-01T12:23:48;98691.56;;;13.53;47.03
61900;BME280;47853;55.890;37.664;2022-09-01T12:26:18;98707.34;;;12.37;49.26
61900;BME280;47853;55.890;37.664;2022-09-01T12:28:45;98691.47;;;12.15;49.38
61900;BME280;47853;55.890;37.664;2022-09-01T12:31:18;98694.13;;;12.57;48.57
61900;BME280;47853;55.890;37.664;2022-09-01T12:33:44;98700.66;;;12.89;47.93
61900;BME280;47853;55.890;37.664;2022-09-01T12:38:39;98691.97;;;12.67;48.17
61900;BME280;47853;55.890;37.664;2022-09-01T12:41:22;98684.16;;;12.66;48.76
61900;BME280;47853;55.890;37.664;2022-09-01T12:43:48;98693.03;;;12.80;48.03
61900;BME280;47853;55.890;37.664;2022-09-01T12:46:40;98697.41;;;12.52;48.51
61900;BME280;47853;55.890;37.664;2022-09-01T12:49:21;98695.03;;;12.29;47.97
61900;BME280;47853;55.890;37.664;2022-09-01T12:51:47;98687.13;;;12.42;47.75
61900;BME280;47853;55.890;37.664;2022-09-01T12:54:13;98703.41;;;12.26;48.19
61900;BME280;47853;55.890;37.664;2022-09-01T12:56:39;98687.31;;;12.06;48.49
61900;BME280;47853;55.890;37.664;2022-09-01T12:59:12;98694.81;;;12.24;48.38
61900;BME280;47853;55.890;37.664;2022-09-01T13:01:41;98690.38;;;12.38;47.89
61900;BME280;47853;55.890;37.664;2022-09-01T13:06:36;98677.53;;;12.55;47.76
61900;BME280;47853;55.890;37.664;2022-09-01T13:09:01;98695.41;;;12.61;47.63
61900;BME280;47853;55.890;37.664;2022-09-01T13:11:27;98671.97;;;12.43;48.01
61900;BME280;47853;55.890;37.664;2022-09-01T13:13:52;98654.44;;;12.62;48.49
61900;BME280;47853;55.890;37.664;2022-09-01T13:16:18;98691.41;;;12.85;49.17
61900;BME280;47853;55.890;37.664;2022-09-01T13:18:43;98677.22;;;13.74;47.15
61900;BME280;47853;55.890;37.664;2022-09-01T13:21:09;98662.81;;;14.15;46.63
61900;BME280;47853;55.890;37.664;2022-09-01T13:23:36;98665.69;;;16.01;43.03
61900;BME280;47853;55.890;37.664;2022-09-01T13:26:02;98676.78;;;17.29;39.19
61900;BME280;47853;55.890;37.664;2022-09-01T13:28:27;98659.97;;;17.33;38.75
61900;BME280;47853;55.890;37.664;2022-09-01T13:31:01;98656.53;;;17.02;39.76
61900;BME280;47853;55.890;37.664;2022-09-01T13:33:27;98665.28;;;17.76;36.83
61900;BME280;47853;55.890;37.664;2022-09-01T13:35:53;98672.16;;;16.87;38.38
61900;BME280;47853;55.890;37.664;2022-09-01T13:38:19;98660.41;;;15.37;41.20
61900;BME280;47853;55.890;37.664;2022-09-01T13:40:46;98677.94;;;14.42;43.10
61900;BME280;47853;55.890;37.664;2022-09-01T13:43:17;98671.25;;;13.85;44.50
61900;BME280;47853;55.890;37.664;2022-09-01T13:45:43;98667.31;;;13.27;46.30
61900;BME280;47853;55.890;37.664;2022-09-01T13:48:08;98649.44;;;13.01;47.21
61900;BME280;47853;55.890;37.664;2022-09-01T13:50:34;98665.66;;;13.26;46.80
61900;BME280;47853;55.890;37.664;2022-09-01T13:53:00;98656.50;;;13.49;46.32
61900;BME280;47853;55.890;37.664;2022-09-01T13:55:31;98655.19;;;13.25;46.90
61900;BME280;47853;55.890;37.664;2022-09-01T13:57:57;98658.06;;;13.10;47.48
61900;BME280;47853;55.890;37.664;2022-09-01T14:00:27;98664.22;;;13.17;48.21
61900;BME280;47853;55.890;37.664;2022-09-01T14:02:56;98672.31;;;13.57;47.79
61900;BME280;47853;55.890;37.664;2022-09-01T14:05:27;98659.88;;;14.37;46.46
61900;BME280;47853;55.890;37.664;2022-09-01T14:07:56;98680.88;;;15.82;43.08
61900;BME280;47853;55.890;37.664;2022-09-01T14:10:22;98672.44;;;15.78;41.62